Time;durP1;ratioP1;P1;durP2;ratioP2;P2;SDS_P1;SDS_P2;PMS_P1;PMS_P2;Temp;Humidity;BMP_temperature;BMP_pressure;BME280_temperature;BME280_humidity;BME280_pressure;Samples;Min_cycle;Max_cycle;Signal;HPM_P1;HPM_P2
2023/09/22 00:01:23;;;;;;;6.13;4.72;;;;;;;16.94;78.17;96490.97;5157829;27;20478;-65
2023/09/22 00:03:52;;;;;;;9.23;4.80;;;;;;;16.91;78.22;96481.47;5158294;27;20133;-66
2023/09/22 00:06:22;;;;;;;7.80;4.32;;;;;;;16.87;78.40;96479.09;5158179;27;20038;-64
2023/09/22 00:08:49;;;;;;;4.72;4.30;;;;;;;16.83;78.47;96494.31;5158367;27;20047;-67
2023/09/22 00:11:16;;;;;;;5.95;4.90;;;;;;;16.80;79.02;96481.31;5158843;27;20047;-68
2023/09/22 00:13:43;;;;;;;5.93;4.47;;;;;;;16.80;78.63;96482.13;5158404;27;20099;-68
2023/09/22 00:16:10;;;;;;;8.50;4.60;;;;;;;16.81;78.04;96485.63;5158202;27;20047;-63
2023/09/22 00:18:38;;;;;;;12.35;4.85;;;;;;;16.74;78.98;96484.34;5158287;27;20061;-68
2023/09/22 00:21:06;;;;;;;8.57;4.85;;;;;;;16.79;79.04;96487.53;5157994;27;20047;-64
2023/09/22 00:23:34;;;;;;;8.35;4.80;;;;;;;16.79;78.66;96483.09;5158064;27;20095;-65
2023/09/22 00:26:01;;;;;;;6.43;5.65;;;;;;;16.59;79.98;96481.75;5157780;27;20051;-65
2023/09/22 00:28:28;;;;;;;9.23;4.97;;;;;;;16.57;80.18;96482.75;5157783;27;20047;-66
2023/09/22 00:30:55;;;;;;;6.85;4.55;;;;;;;16.58;80.42;96484.47;5157847;27;20044;-70
2023/09/22 00:33:23;;;;;;;9.77;4.72;;;;;;;16.57;80.85;96488.91;5157716;27;20049;-68
2023/09/22 00:35:51;;;;;;;9.40;4.85;;;;;;;16.52;80.86;96483.03;5157736;27;20051;-65
2023/09/22 00:38:19;;;;;;;8.93;4.88;;;;;;;16.54;80.19;96474.09;5157706;27;20460;-65
2023/09/22 00:40:46;;;;;;;8.35;4.60;;;;;;;16.52;79.71;96480.41;5157574;27;20125;-64
2023/09/22 00:43:17;;;;;;;8.40;4.43;;;;;;;16.48;79.65;96476.28;5157628;27;20061;-68
2023/09/22 00:45:48;;;;;;;5.80;4.70;;;;;;;16.46;79.26;96476.38;5157549;27;20050;-70
2023/09/22 00:48:21;;;;;;;6.13;4.82;;;;;;;16.45;78.95;96479.97;5157271;27;20050;-65
2023/09/22 00:50:49;;;;;;;7.05;5.13;;;;;;;16.42;78.64;96491.56;5157599;27;20043;-66
2023/09/22 00:53:16;;;;;;;8.40;4.18;;;;;;;16.45;78.59;96489.66;5157389;27;20047;-68
2023/09/22 00:55:46;;;;;;;9.77;4.55;;;;;;;16.44;78.00;96498.53;5157424;27;20450;-67
2023/09/22 00:58:13;;;;;;;6.60;4.28;;;;;;;16.35;78.45;96506.09;5157535;27;20042;-67
2023/09/22 01:00:44;;;;;;;11.13;5.15;;;;;;;16.32;79.01;96506.28;5157029;27;20089;-69
2023/09/22 01:03:11;;;;;;;6.18;4.13;;;;;;;16.32;78.90;96495.72;5157230;27;20554;-65
2023/09/22 01:05:39;;;;;;;7.05;4.50;;;;;;;16.25;78.49;96495.25;5157141;27;20046;-65
2023/09/22 01:08:06;;;;;;;5.95;4.53;;;;;;;16.15;79.24;96487.06;5156965;27;20129;-66
2023/09/22 01:10:37;;;;;;;5.28;4.78;;;;;;;16.12;79.45;96497.78;5156874;27;20480;-67
2023/09/22 01:13:06;;;;;;;6.15;4.60;;;;;;;16.09;79.31;96494.50;5156067;27;20129;-70
2023/09/22 01:15:34;;;;;;;8.80;4.60;;;;;;;16.03;78.95;96491.31;5156948;27;20042;-69
2023/09/22 01:18:01;;;;;;;8.45;4.47;;;;;;;16.01;78.92;96487.03;5157152;27;20047;-65
2023/09/22 01:20:28;;;;;;;6.07;4.45;;;;;;;15.99;78.84;96479.25;5156822;27;20053;-68
2023/09/22 01:22:57;;;;;;;7.63;4.57;;;;;;;15.98;79.07;96480.16;5157056;27;20074;-64
2023/09/22 01:25:24;;;;;;;5.85;4.65;;;;;;;15.94;78.32;96477.78;5156810;27;20046;-69
2023/09/22 01:27:51;;;;;;;9.75;4.85;;;;;;;15.85;78.73;96469.50;5156635;27;20061;-63
2023/09/22 01:30:19;;;;;;;6.40;4.78;;;;;;;15.77;79.81;96474.34;5156817;27;20449;-63
2023/09/22 01:32:46;;;;;;;7.45;4.40;;;;;;;15.77;80.16;96472.59;5156750;27;20054;-69
2023/09/22 01:35:14;;;;;;;7.85;4.88;;;;;;;15.75;79.59;96471.81;5156619;27;20042;-65
2023/09/22 01:37:48;;;;;;;8.80;4.03;;;;;;;15.69;80.11;96469.56;5156535;27;20054;-66
2023/09/22 01:40:17;;;;;;;11.07;4.80;;;;;;;15.71;80.25;96477.38;5156909;27;20039;-70
2023/09/22 01:42:45;;;;;;;8.50;4.88;;;;;;;15.69;79.62;96480.13;5156525;27;20484;-68
2023/09/22 01:45:12;;;;;;;12.15;4.68;;;;;;;15.74;79.35;96474.56;5156332;27;20046;-64
2023/09/22 01:47:40;;;;;;;7.65;4.82;;;;;;;15.72;78.71;96477.31;5156132;27;20504;-62
2023/09/22 01:50:09;;;;;;;4.80;4.20;;;;;;;15.71;78.72;96469.47;5156233;27;20051;-70
2023/09/22 01:52:37;;;;;;;14.57;4.20;;;;;;;15.67;78.71;96474.06;5156359;27;20043;-63
2023/09/22 01:55:05;;;;;;;6.78;4.50;;;;;;;15.62;78.82;96473.53;5156309;27;20389;-66
2023/09/22 01:57:33;;;;;;;7.93;4.28;;;;;;;15.60;78.54;96470.13;5156159;27;20071;-68
2023/09/22 02:00:01;;;;;;;7.60;4.07;;;;;;;15.50;79.00;96470.66;5156138;27;20039;-67
2023/09/22 02:02:28;;;;;;;9.43;4.22;;;;;;;15.45;79.35;96479.78;5156094;27;20091;-68
2023/09/22 02:04:55;;;;;;;6.55;4.70;;;;;;;15.41;79.32;96481.72;5156072;27;20108;-69
2023/09/22 02:07:23;;;;;;;8.65;4.32;;;;;;;15.40;79.16;96488.81;5155875;27;20085;-67
2023/09/22 02:09:50;;;;;;;11.55;4.32;;;;;;;15.35;79.65;96476.84;5155890;27;20078;-68
2023/09/22 02:12:17;;;;;;;5.07;4.55;;;;;;;15.36;79.79;96478.53;5155712;27;20143;-68
2023/09/22 02:14:45;;;;;;;6.28;4.90;;;;;;;15.38;80.18;96468.75;5155921;27;20046;-68
2023/09/22 02:17:13;;;;;;;12.52;5.10;;;;;;;15.26;80.58;96468.50;5155755;27;20118;-64
2023/09/22 02:19:40;;;;;;;6.80;4.50;;;;;;;15.28;80.45;96471.06;5156070;27;20054;-69
2023/09/22 02:22:07;;;;;;;11.10;4.63;;;;;;;15.29;79.81;96478.88;5155529;27;20121;-63
2023/09/22 02:24:34;;;;;;;6.15;4.20;;;;;;;15.31;79.63;96486.69;5155575;27;20089;-68
2023/09/22 02:27:02;;;;;;;7.28;4.28;;;;;;;15.24;79.29;96504.66;5155483;27;20070;-63
2023/09/22 02:29:29;;;;;;;9.43;4.82;;;;;;;15.19;79.61;96506.69;5155540;27;20050;-64
2023/09/22 02:31:57;;;;;;;5.72;4.70;;;;;;;15.19;80.28;96501.44;5155644;27;20043;-68
2023/09/22 02:34:24;;;;;;;7.63;4.40;;;;;;;15.10;80.92;96494.03;5155492;27;20480;-67
2023/09/22 02:36:52;;;;;;;4.60;4.20;;;;;;;15.06;82.14;96493.38;5155442;27;20047;-68
2023/09/22 02:39:19;;;;;;;8.57;5.28;;;;;;;15.04;82.69;96489.97;5155302;27;20051;-69
2023/09/22 02:41:47;;;;;;;6.30;4.38;;;;;;;15.10;82.46;96491.41;5155456;27;20038;-70
2023/09/22 02:44:15;;;;;;;10.30;4.70;;;;;;;15.11;81.55;96501.88;5155407;27;20043;-68
2023/09/22 02:46:43;;;;;;;4.97;4.38;;;;;;;15.12;81.23;96502.72;5155088;27;20095;-67
2023/09/22 02:49:11;;;;;;;5.50;4.10;;;;;;;15.12;81.21;96508.84;5155215;27;20042;-65
2023/09/22 02:51:38;;;;;;;7.63;5.07;;;;;;;15.06;81.18;96503.94;5155045;27;20051;-68
2023/09/22 02:54:05;;;;;;;6.43;5.00;;;;;;;15.03;81.83;96501.47;5155182;27;20051;-64
2023/09/22 02:56:32;;;;;;;7.03;4.80;;;;;;;15.02;82.26;96508.50;5155226;27;20137;-70
2023/09/22 02:58:59;;;;;;;6.88;5.15;;;;;;;15.02;85.01;96513.78;5155242;27;20050;-66
2023/09/22 03:01:26;;;;;;;11.43;5.53;;;;;;;14.95;84.99;96520.31;5154783;27;20051;-63
2023/09/22 03:03:53;;;;;;;7.57;4.80;;;;;;;14.99;85.54;96524.47;5155073;27;20146;-69
2023/09/22 03:06:22;;;;;;;7.10;4.70;;;;;;;14.94;84.08;96518.63;5155029;27;20536;-63
2023/09/22 03:08:49;;;;;;;8.32;4.85;;;;;;;14.90;84.79;96515.31;5154836;27;20042;-66
2023/09/22 03:11:19;;;;;;;9.10;5.43;;;;;;;14.84;85.65;96499.84;5154890;27;20605;-66
2023/09/22 03:13:47;;;;;;;6.88;4.72;;;;;;;14.76;85.86;96484.47;5155359;27;20095;-68
2023/09/22 03:16:15;;;;;;;10.27;4.90;;;;;;;14.78;86.68;96487.06;5154797;27;20046;-67
2023/09/22 03:18:42;;;;;;;9.98;5.47;;;;;;;14.84;87.26;96491.94;5154912;27;20050;-70
2023/09/22 03:21:09;;;;;;;10.63;5.78;;;;;;;14.94;86.51;96497.56;5154663;27;20442;-62
2023/09/22 03:23:38;;;;;;;6.13;4.80;;;;;;;14.98;85.97;96509.63;5154835;27;20046;-67
2023/09/22 03:26:05;;;;;;;6.45;4.78;;;;;;;14.98;86.04;96495.59;5154992;27;20042;-68
2023/09/22 03:28:32;;;;;;;5.95;4.78;;;;;;;14.96;86.48;96500.94;5154702;27;20103;-70
2023/09/22 03:30:59;;;;;;;13.60;5.55;;;;;;;15.04;87.41;96497.88;5154692;27;20053;-67
2023/09/22 03:33:26;;;;;;;7.65;5.18;;;;;;;15.04;87.68;96492.63;5154850;27;20043;-67
2023/09/22 03:35:53;;;;;;;7.65;5.25;;;;;;;15.10;87.95;96491.41;5157552;27;20047;-65
2023/09/22 03:38:20;;;;;;;6.32;4.70;;;;;;;15.15;87.85;96492.84;5158939;27;20047;-67
2023/09/22 03:40:52;;;;;;;6.93;5.10;;;;;;;15.21;87.08;96490.81;5158821;27;20138;-64
2023/09/22 03:43:19;;;;;;;5.13;4.30;;;;;;;15.26;86.80;96494.88;5158810;27;20130;-66
2023/09/22 03:45:46;;;;;;;5.93;4.88;;;;;;;15.27;86.68;96491.28;5158760;27;20054;-64
2023/09/22 03:48:12;;;;;;;7.30;4.88;;;;;;;15.35;86.59;96490.00;5158507;27;20068;-69
2023/09/22 03:50:39;;;;;;;7.03;5.25;;;;;;;15.43;86.39;96500.94;5158859;27;20078;-65
2023/09/22 03:53:06;;;;;;;6.68;4.35;;;;;;;15.46;85.85;96492.88;5158627;27;20099;-66
2023/09/22 03:55:33;;;;;;;6.85;4.80;;;;;;;15.47;85.47;96496.34;5158728;27;20054;-66
2023/09/22 03:58:02;;;;;;;6.60;5.18;;;;;;;15.48;86.40;96500.69;5158637;27;20102;-67
2023/09/22 04:00:29;;;;;;;12.32;5.60;;;;;;;15.49;86.24;96505.88;5158262;27;20057;-69
2023/09/22 04:02:56;;;;;;;11.10;5.28;;;;;;;15.57;85.73;96513.34;5158540;27;20111;-67
2023/09/22 04:05:23;;;;;;;7.32;4.75;;;;;;;15.62;85.46;96505.16;5158392;27;20133;-64
2023/09/22 04:07:51;;;;;;;8.82;5.55;;;;;;;15.68;85.29;96510.03;5158301;27;20050;-71
2023/09/22 04:10:19;;;;;;;5.25;4.70;;;;;;;15.74;85.04;96512.31;5158336;27;20130;-63
2023/09/22 04:12:46;;;;;;;6.10;4.60;;;;;;;15.79;84.83;96506.78;5158203;27;20043;-71
2023/09/22 04:15:15;;;;;;;5.53;4.75;;;;;;;15.82;85.01;96506.59;5158401;27;20459;-68
2023/09/22 04:17:42;;;;;;;8.60;5.22;;;;;;;15.86;84.67;96496.72;5158325;27;20047;-61
2023/09/22 04:20:12;;;;;;;8.43;4.60;;;;;;;15.87;84.69;96495.78;5158229;27;20074;-67
2023/09/22 04:22:41;;;;;;;6.68;4.55;;;;;;;15.91;84.65;96484.94;5158070;27;20051;-66
2023/09/22 04:25:11;;;;;;;6.85;4.55;;;;;;;15.94;84.69;96490.97;5158175;27;20148;-64
2023/09/22 04:27:43;;;;;;;10.30;4.85;;;;;;;15.99;84.56;96486.28;5157831;27;20054;-63
2023/09/22 04:30:15;;;;;;;5.22;4.72;;;;;;;16.02;84.20;96479.03;5157935;27;20450;-65
2023/09/22 04:32:44;;;;;;;6.95;4.80;;;;;;;16.06;84.19;96486.75;5157955;27;20043;-70
2023/09/22 04:35:12;;;;;;;5.40;4.50;;;;;;;16.13;83.62;96485.44;5157996;27;20046;-66
2023/09/22 04:37:40;;;;;;;5.20;4.45;;;;;;;16.18;82.98;96499.22;5157674;27;20400;-63
2023/09/22 04:40:11;;;;;;;8.30;4.80;;;;;;;16.22;82.43;96499.88;5157871;27;20075;-69
2023/09/22 04:42:38;;;;;;;7.75;4.68;;;;;;;16.27;82.50;96495.16;5157684;27;20536;-69
2023/09/22 04:45:06;;;;;;;11.20;4.63;;;;;;;16.32;82.29;96485.16;5157502;27;20099;-69
2023/09/22 04:47:33;;;;;;;5.28;4.25;;;;;;;16.35;82.30;96494.69;5157522;27;20111;-67
2023/09/22 04:50:02;;;;;;;5.65;4.32;;;;;;;16.46;82.09;96492.22;5157615;27;20039;-66
2023/09/22 04:52:30;;;;;;;7.07;4.03;;;;;;;16.72;81.29;96495.00;5157456;27;20522;-67
2023/09/22 04:54:57;;;;;;;5.35;3.90;;;;;;;17.18;80.45;96495.63;5157579;27;20107;-67
2023/09/22 04:57:24;;;;;;;7.22;3.75;;;;;;;17.75;76.21;96496.28;5157515;27;20043;-63
2023/09/22 04:59:53;;;;;;;5.28;3.50;;;;;;;18.40;73.41;96498.97;5156972;27;20086;-65
2023/09/22 05:02:20;;;;;;;6.93;3.50;;;;;;;19.01;70.94;96517.66;5157331;27;20453;-64
2023/09/22 05:04:47;;;;;;;6.60;3.25;;;;;;;19.32;68.16;96512.78;5157299;27;20043;-66
2023/09/22 05:07:16;;;;;;;4.38;3.28;;;;;;;19.32;67.91;96518.06;5157328;27;20058;-66
2023/09/22 05:09:44;;;;;;;5.43;3.50;;;;;;;19.71;68.02;96515.19;5157099;27;20051;-65
2023/09/22 05:12:11;;;;;;;4.93;3.33;;;;;;;20.12;65.78;96522.81;5157239;27;20078;-68
2023/09/22 05:14:38;;;;;;;12.68;3.63;;;;;;;20.20;65.47;96517.75;5156937;27;20130;-68
2023/09/22 05:17:05;;;;;;;5.28;3.80;;;;;;;20.07;65.35;96524.00;5156955;27;20047;-63
2023/09/22 05:19:32;;;;;;;6.60;3.53;;;;;;;20.17;65.89;96531.28;5156960;27;20051;-65
2023/09/22 05:21:59;;;;;;;7.00;3.63;;;;;;;20.22;65.95;96539.72;5157200;27;20143;-67
2023/09/22 05:24:29;;;;;;;6.80;3.63;;;;;;;20.17;66.92;96526.78;5156942;27;20096;-68
2023/09/22 05:26:56;;;;;;;4.53;3.70;;;;;;;20.02;67.24;96526.16;5156835;27;20047;-65
2023/09/22 05:29:23;;;;;;;5.43;3.60;;;;;;;19.90;67.15;96535.88;5156834;27;20047;-65
2023/09/22 05:31:51;;;;;;;5.65;3.38;;;;;;;19.77;67.87;96541.28;5156604;27;20134;-65
2023/09/22 05:34:19;;;;;;;8.68;3.80;;;;;;;19.72;68.84;96542.59;5156731;27;20121;-63
2023/09/22 05:36:46;;;;;;;6.70;3.92;;;;;;;19.66;68.89;96538.59;5156592;27;20047;-66
2023/09/22 05:39:15;;;;;;;8.05;4.13;;;;;;;19.90;70.44;96540.34;5156600;27;20042;-65
2023/09/22 05:41:48;;;;;;;5.40;3.47;;;;;;;20.06;69.26;96538.25;5156532;27;20051;-66
2023/09/22 05:44:16;;;;;;;5.15;4.13;;;;;;;20.19;68.50;96545.25;5156333;27;20432;-67
2023/09/22 05:46:43;;;;;;;6.20;3.50;;;;;;;20.51;68.97;96547.22;5156355;27;20046;-64
2023/09/22 05:49:14;;;;;;;4.93;3.60;;;;;;;20.82;67.36;96557.22;5156309;27;20051;-68
2023/09/22 05:51:41;;;;;;;4.88;3.45;;;;;;;20.77;65.68;96560.25;5156284;27;20099;-62
2023/09/22 05:54:09;;;;;;;6.65;4.05;;;;;;;20.75;65.41;96564.00;5156512;27;20085;-65
2023/09/22 05:56:40;;;;;;;7.60;3.53;;;;;;;20.79;65.42;96578.72;5156256;27;20089;-63
2023/09/22 05:59:09;;;;;;;6.82;3.65;;;;;;;20.83;66.38;96577.53;5155615;27;20408;-63
2023/09/22 06:01:37;;;;;;;4.75;3.28;;;;;;;20.88;67.94;96579.81;5156019;27;20125;-64
2023/09/22 06:04:05;;;;;;;5.97;4.38;;;;;;;21.16;66.39;96577.66;5155924;27;20039;-64
2023/09/22 06:06:34;;;;;;;6.38;3.90;;;;;;;21.43;64.81;96571.06;5155965;27;20095;-67
2023/09/22 06:09:01;;;;;;;5.45;3.13;;;;;;;22.28;61.95;96572.97;5155831;27;20549;-67
2023/09/22 06:11:28;;;;;;;8.10;3.35;;;;;;;23.38;58.29;96585.78;5156109;27;20054;-64
2023/09/22 06:13:55;;;;;;;7.10;3.22;;;;;;;24.44;54.44;96587.72;5155769;27;20081;-70
2023/09/22 06:16:25;;;;;;;8.70;3.28;;;;;;;25.29;52.08;96586.00;5155887;27;20050;-67
2023/09/22 06:18:53;;;;;;;5.45;2.88;;;;;;;26.02;50.28;96593.22;5156082;27;20047;-65
2023/09/22 06:21:21;;;;;;;7.28;2.70;;;;;;;26.43;48.07;96582.00;5156040;27;20398;-65
2023/09/22 06:23:49;;;;;;;7.78;2.80;;;;;;;27.02;46.50;96580.50;5155784;27;20050;-67
2023/09/22 06:26:16;;;;;;;4.57;2.42;;;;;;;27.61;44.86;96583.19;5155744;27;20492;-68
2023/09/22 06:28:43;;;;;;;10.13;3.20;;;;;;;28.04;44.65;96584.06;5155434;27;20050;-66
2023/09/22 06:31:11;;;;;;;9.27;2.80;;;;;;;28.15;42.31;96586.44;5155671;27;20042;-65
2023/09/22 06:33:40;;;;;;;5.53;2.58;;;;;;;28.18;42.18;96580.72;5155463;27;20049;-64
2023/09/22 06:36:07;;;;;;;6.25;3.03;;;;;;;28.43;42.24;96593.28;5155566;27;20047;-69
2023/09/22 06:38:34;;;;;;;7.22;2.80;;;;;;;28.71;42.12;96587.53;5155322;27;20515;-63
2023/09/22 06:41:02;;;;;;;4.72;2.75;;;;;;;29.09;41.27;96582.38;5155324;27;20046;-66
2023/09/22 06:43:30;;;;;;;5.07;2.78;;;;;;;29.33;40.92;96588.66;5155284;27;20042;-67
2023/09/22 06:45:59;;;;;;;4.57;2.83;;;;;;;29.49;40.26;96587.72;5155532;27;20047;-65
2023/09/22 06:48:27;;;;;;;9.35;2.75;;;;;;;29.50;41.15;96589.38;5155196;27;20107;-63
2023/09/22 06:50:57;;;;;;;12.05;2.83;;;;;;;29.50;40.70;96593.97;5155458;27;20078;-67
2023/09/22 06:53:26;;;;;;;;;;;;;;;29.73;40.97;96587.75;5155655;27;20051;-65
2023/09/22 06:56:03;;;;;;;3.50;2.53;;;;;;;29.81;40.49;96587.72;5155054;27;20001;-69
2023/09/22 06:58:30;;;;;;;5.07;3.03;;;;;;;29.95;39.90;96590.66;5155110;27;20070;-66
2023/09/22 07:01:07;;;;;;;5.05;3.20;;;;;;;29.96;40.43;96590.47;5155171;27;20042;-63
2023/09/22 07:03:34;;;;;;;5.95;2.58;;;;;;;30.22;39.39;96596.53;5155003;27;20099;-63
2023/09/22 07:06:03;;;;;;;5.28;2.97;;;;;;;30.25;39.35;96599.69;5154911;27;20141;-66
2023/09/22 07:08:31;;;;;;;10.38;3.55;;;;;;;30.44;38.34;96602.91;5154729;27;20128;-68
2023/09/22 07:11:03;;;;;;;6.50;2.90;;;;;;;30.59;38.12;96602.94;5154212;27;20039;-67
2023/09/22 07:13:31;;;;;;;11.05;2.97;;;;;;;30.71;38.42;96606.00;5154890;27;20051;-63
2023/09/22 07:15:59;;;;;;;9.93;3.20;;;;;;;30.64;37.79;96602.38;5155078;27;20399;-67
2023/09/22 07:18:26;;;;;;;6.18;3.42;;;;;;;30.28;38.39;96609.28;5154790;27;20046;-67
2023/09/22 07:20:54;;;;;;;6.60;3.28;;;;;;;30.17;38.55;96607.84;5154721;27;20469;-66
2023/09/22 07:23:24;;;;;;;11.45;3.65;;;;;;;30.18;38.00;96612.22;5155031;27;20053;-62
2023/09/22 07:26:01;;;;;;;9.25;2.80;;;;;;;30.36;38.06;96603.81;5154705;27;20129;-63
2023/09/22 07:28:29;;;;;;;9.85;3.72;;;;;;;30.30;37.83;96607.22;5154854;27;20047;-63
2023/09/22 07:30:56;;;;;;;7.35;2.95;;;;;;;30.41;38.00;96603.28;5154751;27;20042;-64
2023/09/22 07:33:29;;;;;;;5.47;3.33;;;;;;;30.61;37.16;96600.88;5154544;27;20058;-69
2023/09/22 07:35:57;;;;;;;5.75;3.05;;;;;;;30.68;36.53;96600.13;5154629;27;20042;-63
2023/09/22 07:38:26;;;;;;;8.95;3.42;;;;;;;30.75;36.26;96601.06;5154546;27;20085;-65
2023/09/22 07:40:53;;;;;;;6.85;3.35;;;;;;;30.59;37.33;96594.84;5154611;27;20480;-64
2023/09/22 07:43:21;;;;;;;6.30;3.72;;;;;;;30.52;37.71;96592.00;5154566;27;20057;-65
2023/09/22 07:45:49;;;;;;;10.50;3.20;;;;;;;30.52;37.44;96597.41;5154560;27;20047;-64
2023/09/22 07:48:16;;;;;;;7.50;2.83;;;;;;;30.55;37.38;96584.59;5154665;27;20107;-64
2023/09/22 07:50:44;;;;;;;4.88;3.08;;;;;;;30.35;36.43;96585.13;5154940;27;20111;-66
2023/09/22 07:53:12;;;;;;;5.40;3.13;;;;;;;30.32;36.25;96588.19;5154380;27;20103;-68
2023/09/22 07:55:42;;;;;;;5.53;3.10;;;;;;;30.67;37.45;96584.97;5154430;27;20046;-67
2023/09/22 07:58:10;;;;;;;5.80;3.15;;;;;;;30.79;37.18;96578.09;5154397;27;20079;-67
2023/09/22 08:00:42;;;;;;;6.00;3.17;;;;;;;31.04;37.46;96582.38;5154429;27;20050;-64
2023/09/22 08:03:10;;;;;;;7.10;3.42;;;;;;;31.30;36.79;96589.16;5154334;27;20492;-67
2023/09/22 08:05:39;;;;;;;9.63;3.20;;;;;;;31.49;35.47;96585.03;5154352;27;20049;-66
2023/09/22 08:08:07;;;;;;;7.95;3.50;;;;;;;31.75;34.93;96586.31;5154386;27;20406;-69
2023/09/22 08:10:34;;;;;;;5.70;3.30;;;;;;;31.87;35.50;96579.38;5154215;27;20057;-65
2023/09/22 08:13:03;;;;;;;5.68;3.30;;;;;;;32.06;34.53;96581.66;5154464;27;20046;-65
2023/09/22 08:15:31;;;;;;;4.63;3.08;;;;;;;32.15;34.32;96584.03;5154356;27;20166;-64
2023/09/22 08:17:58;;;;;;;6.85;3.28;;;;;;;32.30;33.74;96584.97;5154552;27;20047;-64
2023/09/22 08:20:25;;;;;;;6.85;3.35;;;;;;;31.72;33.72;96576.75;5154506;27;20104;-64
2023/09/22 08:22:52;;;;;;;14.20;3.67;;;;;;;31.44;35.71;96569.38;5158039;27;20563;-66
2023/09/22 08:25:21;;;;;;;8.77;3.70;;;;;;;31.78;34.67;96569.72;5158309;27;20175;-64
2023/09/22 08:27:52;;;;;;;10.20;3.40;;;;;;;31.75;33.31;96567.41;5157976;27;20042;-67
2023/09/22 08:30:22;;;;;;;12.25;3.60;;;;;;;31.08;34.71;96562.91;5157823;27;20050;-65
2023/09/22 08:32:49;;;;;;;10.20;4.20;;;;;;;31.03;35.48;96565.31;5157913;27;20047;-65
2023/09/22 08:35:17;;;;;;;5.75;3.50;;;;;;;31.06;36.79;96558.72;5157806;27;20270;-67
2023/09/22 08:37:46;;;;;;;9.80;3.45;;;;;;;31.28;35.11;96567.72;5157947;27;20119;-62
2023/09/22 08:40:16;;;;;;;6.57;3.42;;;;;;;31.52;35.47;96560.31;5157594;27;20053;-64
2023/09/22 08:42:45;;;;;;;6.27;3.73;;;;;;;31.69;34.59;96571.72;5157695;27;20050;-66
2023/09/22 08:45:13;;;;;;;5.82;3.90;;;;;;;31.71;35.14;96556.16;5157443;27;20053;-65
2023/09/22 08:47:45;;;;;;;10.52;3.40;;;;;;;31.59;35.05;96561.22;5157715;27;20125;-67
2023/09/22 08:50:13;;;;;;;9.45;3.40;;;;;;;31.57;35.13;96560.56;5157552;27;20157;-65
2023/09/22 08:52:41;;;;;;;10.02;4.60;;;;;;;31.69;35.16;96568.19;5157564;27;20380;-67
2023/09/22 08:55:11;;;;;;;7.93;3.47;;;;;;;31.82;35.05;96565.63;5157516;27;20047;-65
2023/09/22 08:57:41;;;;;;;11.25;3.67;;;;;;;31.96;33.87;96561.19;5157465;27;20050;-63
2023/09/22 09:00:12;;;;;;;8.27;4.00;;;;;;;31.95;34.60;96567.63;5157237;27;20126;-66
2023/09/22 09:02:40;;;;;;;12.02;3.72;;;;;;;31.83;34.79;96559.19;5157289;27;20306;-63
2023/09/22 09:05:27;;;;;;;12.48;3.53;;;;;;;31.90;34.22;96564.63;5157107;27;20046;-66
2023/09/22 09:07:55;;;;;;;13.00;4.20;;;;;;;31.85;34.37;96561.69;5156209;27;20046;-64
2023/09/22 09:10:30;;;;;;;4.53;3.42;;;;;;;31.78;34.12;96557.06;5157360;27;20078;-65
2023/09/22 09:13:01;;;;;;;11.05;4.03;;;;;;;31.88;34.61;96555.91;5157030;27;20539;-64
2023/09/22 09:15:30;;;;;;;14.52;4.57;;;;;;;31.78;34.42;96551.66;5157027;27;20043;-62
2023/09/22 09:18:08;;;;;;;11.15;4.63;;;;;;;31.81;34.58;96550.41;5157093;27;20057;-66
2023/09/22 09:20:40;;;;;;;6.85;4.05;;;;;;;31.87;34.24;96548.78;5156899;27;20047;-64
2023/09/22 09:23:18;;;;;;;12.38;4.35;;;;;;;31.82;33.68;96551.25;5156865;27;20480;-64
2023/09/22 09:25:47;;;;;;;9.95;4.22;;;;;;;31.71;34.83;96548.03;5157048;27;20079;-67
2023/09/22 09:28:16;;;;;;;20.23;4.63;;;;;;;31.78;34.25;96538.13;5157084;27;20047;-63
2023/09/22 09:30:52;;;;;;;11.07;4.20;;;;;;;31.95;34.53;96546.00;5156804;27;20049;-64
2023/09/22 09:33:21;;;;;;;9.85;4.45;;;;;;;31.91;34.71;96544.69;5155624;27;20487;-62
2023/09/22 09:35:51;;;;;;;8.52;4.25;;;;;;;31.92;34.50;96546.38;5156528;27;20471;-65
2023/09/22 09:38:18;;;;;;;11.38;4.25;;;;;;;31.64;33.89;96541.75;5156748;27;20042;-67
2023/09/22 09:40:46;;;;;;;9.30;3.78;;;;;;;31.46;34.66;96542.19;5156679;27;20166;-64
2023/09/22 09:43:15;;;;;;;7.85;3.50;;;;;;;31.28;34.57;96546.13;5156606;27;20053;-63
2023/09/22 09:45:45;;;;;;;9.93;4.15;;;;;;;31.18;34.80;96543.69;5156574;27;20112;-65
2023/09/22 09:48:17;;;;;;;6.38;3.78;;;;;;;31.26;35.58;96538.19;5156397;27;20053;-65
2023/09/22 09:50:47;;;;;;;8.90;3.97;;;;;;;31.30;35.07;96543.22;5156303;27;20054;-67
2023/09/22 09:53:22;;;;;;;9.32;3.80;;;;;;;31.38;34.41;96540.44;5156509;27;20472;-62
2023/09/22 09:55:53;;;;;;;13.38;3.90;;;;;;;31.32;34.54;96530.34;5156605;27;20049;-63
2023/09/22 09:58:22;;;;;;;12.05;4.07;;;;;;;31.32;33.21;96525.78;5156157;27;20043;-64
2023/09/22 10:00:51;;;;;;;13.52;3.53;;;;;;;31.36;33.81;96526.28;5155931;27;20061;-65
2023/09/22 10:03:21;;;;;;;9.20;3.72;;;;;;;31.43;33.32;96531.75;5156124;27;20125;-65
2023/09/22 10:05:51;;;;;;;11.38;3.80;;;;;;;31.15;33.49;96517.91;5156123;27;20396;-63
2023/09/22 10:08:21;;;;;;;6.55;3.75;;;;;;;31.02;33.68;96526.72;5156128;27;20050;-66
2023/09/22 10:10:50;;;;;;;13.57;4.00;;;;;;;30.82;34.23;96520.22;5155882;27;20051;-63
2023/09/22 10:13:18;;;;;;;14.00;3.92;;;;;;;30.78;33.72;96508.97;5155796;27;20381;-64
2023/09/22 10:15:58;;;;;;;11.18;4.13;;;;;;;30.79;33.94;96510.63;5155845;27;20099;-66
2023/09/22 10:18:40;;;;;;;;;;;;;;;30.86;35.00;96508.03;5156447;27;20046;-62
2023/09/22 10:21:07;;;;;;;8.23;3.63;;;;;;;30.85;33.69;96507.19;5155544;27;19937;-66
2023/09/22 10:23:36;;;;;;;11.65;3.97;;;;;;;30.78;32.43;96508.97;5155733;27;20125;-62
2023/09/22 10:26:17;;;;;;;11.95;3.17;;;;;;;30.80;33.49;96504.22;5155668;27;20091;-66
2023/09/22 10:28:44;;;;;;;12.18;3.75;;;;;;;30.86;33.58;96502.63;5155089;27;20054;-67
2023/09/22 10:31:11;;;;;;;9.55;3.72;;;;;;;30.98;33.73;96508.38;5155566;27;20492;-64
2023/09/22 10:33:39;;;;;;;17.67;3.80;;;;;;;30.80;32.63;96495.28;5155632;27;20540;-66
2023/09/22 10:36:08;;;;;;;10.55;3.85;;;;;;;30.81;33.45;96495.09;5155409;27;20500;-65
2023/09/22 10:38:55;;;;;;;10.05;3.80;;;;;;;30.63;32.33;96490.06;5155424;27;20129;-66
2023/09/22 10:41:23;;;;;;;13.38;3.72;;;;;;;30.67;32.53;96483.25;5155447;27;20051;-65
2023/09/22 10:43:58;;;;;;;7.18;3.42;;;;;;;30.51;34.48;96486.97;5155185;27;20042;-64
2023/09/22 10:46:26;;;;;;;11.70;3.88;;;;;;;30.55;33.72;96479.38;5155246;27;20038;-64
2023/09/22 10:48:54;;;;;;;10.43;3.45;;;;;;;30.62;33.57;96481.13;5155291;27;20134;-66
2023/09/22 10:51:23;;;;;;;9.68;3.50;;;;;;;30.70;33.28;96480.16;5155080;27;20503;-68
2023/09/22 10:54:00;;;;;;;7.93;3.38;;;;;;;30.82;32.52;96480.56;5155269;27;20532;-68
2023/09/22 10:56:28;;;;;;;8.98;3.28;;;;;;;30.98;33.47;96475.97;5155116;27;20476;-66
2023/09/22 10:58:55;;;;;;;9.38;3.67;;;;;;;30.84;32.72;96481.22;5155306;27;20042;-65
2023/09/22 11:01:23;;;;;;;11.05;3.22;;;;;;;30.87;33.49;96472.75;5154838;27;20046;-64
2023/09/22 11:03:53;;;;;;;9.10;3.67;;;;;;;30.83;33.25;96476.84;5155060;27;20050;-67
2023/09/22 11:06:21;;;;;;;5.85;2.95;;;;;;;30.75;32.90;96466.13;5154997;27;20721;-66
2023/09/22 11:08:52;;;;;;;8.82;3.28;;;;;;;30.86;32.52;96467.53;5154923;27;20046;-63
2023/09/22 11:11:21;;;;;;;7.60;3.17;;;;;;;30.94;33.25;96467.41;5154794;27;20043;-68
2023/09/22 11:13:53;;;;;;;11.30;3.22;;;;;;;30.91;32.71;96466.97;5155092;27;20051;-62
2023/09/22 11:16:21;;;;;;;11.27;3.40;;;;;;;30.97;32.01;96463.53;5154922;27;20053;-65
2023/09/22 11:18:49;;;;;;;12.93;3.45;;;;;;;30.97;32.19;96468.91;5154957;27;20043;-65
2023/09/22 11:21:18;;;;;;;10.82;3.33;;;;;;;30.99;32.70;96456.91;5154954;27;20082;-64
2023/09/22 11:23:46;;;;;;;6.38;3.17;;;;;;;31.06;32.63;96462.34;5154841;27;20050;-65
2023/09/22 11:26:14;;;;;;;10.90;3.40;;;;;;;31.14;32.00;96464.09;5154657;27;20050;-65
2023/09/22 11:28:44;;;;;;;6.22;3.13;;;;;;;31.24;31.88;96459.22;5154747;27;20047;-65
2023/09/22 11:31:14;;;;;;;12.95;3.15;;;;;;;31.17;31.75;96454.78;5154852;27;20096;-64
2023/09/22 11:33:42;;;;;;;11.60;3.00;;;;;;;30.81;32.27;96449.22;5154667;27;20049;-68
2023/09/22 11:36:10;;;;;;;9.50;3.00;;;;;;;30.74;32.19;96442.88;5154636;27;20077;-67
2023/09/22 11:38:40;;;;;;;13.25;3.20;;;;;;;30.89;32.43;96440.16;5155020;27;20617;-62